createdAt,value
2023-02-21T00:01:15.590Z,101956.47
2023-02-21T00:04:01.104Z,101950.19
2023-02-21T00:06:46.749Z,101945.84
2023-02-21T00:09:31.779Z,101946.03
2023-02-21T00:12:17.611Z,101948.84
2023-02-21T00:15:03.293Z,101944.38
2023-02-21T00:17:49.949Z,101944.38
2023-02-21T00:20:35.170Z,101949.69
2023-02-21T00:23:20.810Z,101939.88
2023-02-21T00:26:06.106Z,101951.34
2023-02-21T00:28:52.439Z,101945.06
2023-02-21T00:31:43.210Z,101953.81
2023-02-21T00:34:30.038Z,101943.19
2023-02-21T00:37:15.591Z,101950.38
2023-02-21T00:40:00.774Z,101948.00
2023-02-21T00:42:46.685Z,101946.31
2023-02-21T00:45:31.956Z,101945.63
2023-02-21T00:48:17.257Z,101933.38
2023-02-21T00:51:03.599Z,101932.53
2023-02-21T00:53:48.624Z,101926.22
2023-02-21T00:56:33.645Z,101927.88
2023-02-21T00:59:19.015Z,101933.19
2023-02-21T01:02:04.042Z,101925.41
2023-02-21T01:04:49.231Z,101924.38
2023-02-21T01:07:36.021Z,101919.25
2023-02-21T01:10:21.237Z,101917.59
2023-02-21T01:13:06.575Z,101912.28
2023-02-21T01:15:51.675Z,101918.41
2023-02-21T01:18:36.910Z,101922.91
2023-02-21T01:21:22.401Z,101929.19
2023-02-21T01:24:09.521Z,101924.72
2023-02-21T01:26:54.604Z,101925.69
2023-02-21T01:29:39.828Z,101915.22
2023-02-21T01:32:25.063Z,101908.09
2023-02-21T01:35:10.559Z,101906.41
2023-02-21T01:37:58.033Z,101915.22
2023-02-21T01:40:50.000Z,101917.03
2023-02-21T01:43:37.697Z,101921.38
2023-02-21T01:46:23.737Z,101923.03
2023-02-21T01:49:13.271Z,101914.09
2023-02-21T01:52:01.013Z,101914.25
2023-02-21T01:54:51.659Z,101916.06
2023-02-21T01:57:39.612Z,101917.03
2023-02-21T02:00:28.136Z,101907.25
2023-02-21T02:03:16.117Z,101894.81
2023-02-21T02:06:04.757Z,101893.97
2023-02-21T02:08:51.218Z,101898.44
2023-02-21T02:11:51.853Z,101898.59
2023-02-21T02:14:37.147Z,101898.59
2023-02-21T02:17:10.643Z,101901.09
2023-02-21T02:20:16.218Z,101896.63
2023-02-21T02:23:06.774Z,101890.34
2023-02-21T02:26:15.498Z,101886.84
2023-02-21T02:29:01.773Z,101886.84
2023-02-21T02:31:50.936Z,101886.00
2023-02-21T02:34:49.555Z,101890.50
2023-02-21T02:37:22.248Z,101893.28
2023-02-21T02:39:56.151Z,101888.66
2023-02-21T02:42:33.823Z,101879.03
2023-02-21T02:45:05.937Z,101886.16
2023-02-21T02:47:37.547Z,101872.88
2023-02-21T02:50:08.389Z,101879.03
2023-02-21T02:52:35.524Z,101879.03
2023-02-21T02:55:04.891Z,101885.19
2023-02-21T02:57:40.806Z,101884.34
2023-02-21T03:00:10.826Z,101885.19
2023-02-21T03:02:51.223Z,101876.56
2023-02-21T03:05:38.148Z,101882.00
2023-02-21T03:08:13.157Z,101881.03
2023-02-21T03:10:48.313Z,101866.06
2023-02-21T03:13:21.943Z,101868.59
2023-02-21T03:15:55.892Z,101885.31
2023-02-21T03:18:33.668Z,101881.03
2023-02-21T03:21:03.949Z,101880.19
2023-02-21T03:23:34.687Z,101879.22
2023-02-21T03:26:05.030Z,101881.69
2023-02-21T03:28:33.284Z,101881.53
2023-02-21T03:31:02.340Z,101873.56
2023-02-21T03:33:29.147Z,101870.91
2023-02-21T03:35:58.914Z,101872.72
2023-02-21T03:38:29.681Z,101869.25
2023-02-21T03:40:57.632Z,101874.69
2023-02-21T03:43:24.319Z,101877.34
2023-02-21T03:45:51.175Z,101886.16
2023-02-21T03:48:31.108Z,101877.34
2023-02-21T03:51:00.575Z,101884.34
2023-02-21T03:53:28.931Z,101886.16
2023-02-21T03:55:55.971Z,101878.19
2023-02-21T03:58:22.952Z,101884.66
2023-02-21T04:00:51.566Z,101879.34
2023-02-21T04:03:18.418Z,101885.66
2023-02-21T04:05:45.204Z,101873.34
2023-02-21T04:08:12.308Z,101888.31
2023-02-21T04:10:51.313Z,101877.84
2023-02-21T04:13:20.080Z,101880.34
2023-02-21T04:15:47.078Z,101874.19
2023-02-21T04:18:32.542Z,101880.34
2023-02-21T04:20:59.313Z,101878.53
2023-02-21T04:23:26.120Z,101872.53
2023-02-21T04:25:55.532Z,101864.41
2023-02-21T04:28:22.441Z,101859.09
2023-02-21T04:30:49.288Z,101863.56
2023-02-21T04:33:16.113Z,101870.69
2023-02-21T04:35:43.007Z,101875.03
2023-02-21T04:38:09.828Z,101868.88
2023-02-21T04:40:36.720Z,101864.41
2023-02-21T04:43:04.953Z,101862.59
2023-02-21T04:45:31.855Z,101864.41
2023-02-21T04:47:58.670Z,101855.59
2023-02-21T04:50:25.432Z,101853.09
2023-02-21T04:52:52.159Z,101848.78
2023-02-21T04:55:18.914Z,101851.44
2023-02-21T04:57:45.940Z,101852.41
2023-02-21T05:00:16.500Z,101856.72
2023-02-21T05:02:43.638Z,101848.63
2023-02-21T05:05:10.703Z,101854.63
2023-02-21T05:07:37.564Z,101852.13
2023-02-21T05:10:05.658Z,101858.41
2023-02-21T05:12:32.917Z,101851.28
2023-02-21T05:14:59.638Z,101852.13
2023-02-21T05:17:28.038Z,101863.44
2023-02-21T05:19:55.143Z,101860.78
2023-02-21T05:22:22.565Z,101858.13
2023-02-21T05:24:49.992Z,101864.41
2023-02-21T05:27:18.664Z,101869.19
2023-02-21T05:29:47.952Z,101872.66
2023-02-21T05:32:14.921Z,101867.34
2023-02-21T05:34:44.650Z,101872.66
2023-02-21T05:37:11.593Z,101872.00
2023-02-21T05:39:44.292Z,101875.66
2023-02-21T05:42:13.817Z,101879.97
2023-02-21T05:44:40.544Z,101868.53
2023-02-21T05:47:07.359Z,101872.84
2023-02-21T05:49:34.202Z,101871.84
2023-02-21T05:52:02.453Z,101872.84
2023-02-21T05:54:29.361Z,101878.16
2023-02-21T05:56:56.136Z,101867.69
2023-02-21T05:59:23.170Z,101872.16
2023-02-21T06:01:50.459Z,101873.97
2023-02-21T06:04:18.163Z,101871.31
2023-02-21T06:06:45.673Z,101878.31
2023-02-21T06:09:13.986Z,101868.53
2023-02-21T06:11:40.879Z,101864.88
2023-02-21T06:14:12.901Z,101873.81
2023-02-21T06:16:40.050Z,101876.63
2023-02-21T06:19:08.954Z,101879.44
2023-02-21T06:21:37.447Z,101876.63
2023-02-21T06:24:04.863Z,101876.63
2023-02-21T06:26:33.190Z,101867.81
2023-02-21T06:29:00.001Z,101862.66
2023-02-21T06:31:26.906Z,101871.47
2023-02-21T06:33:53.820Z,101875.09
2023-02-21T06:36:24.699Z,101884.88
2023-02-21T06:38:55.182Z,101877.91
2023-02-21T06:41:27.313Z,101880.72
2023-02-21T06:43:56.721Z,101877.25
2023-02-21T06:46:25.978Z,101878.09
2023-02-21T06:48:53.009Z,101879.91
2023-02-21T06:51:20.219Z,101883.53
2023-02-21T06:53:50.132Z,101880.03
2023-02-21T06:56:17.114Z,101871.09
2023-02-21T06:58:43.998Z,101867.59
2023-02-21T07:01:12.372Z,101872.91
2023-02-21T07:03:40.177Z,101872.09
2023-02-21T07:06:07.144Z,101875.56
2023-02-21T07:08:34.063Z,101869.44
2023-02-21T07:11:00.978Z,101878.38
2023-02-21T07:13:27.752Z,101879.22
2023-02-21T07:15:55.007Z,101873.91
2023-02-21T07:18:23.434Z,101875.56
2023-02-21T07:20:50.253Z,101880.88
2023-02-21T07:23:17.111Z,101878.22
2023-02-21T07:25:43.872Z,101878.22
2023-02-21T07:28:11.653Z,101888.00
2023-02-21T07:30:38.488Z,101885.50
2023-02-21T07:33:06.298Z,101883.69
2023-02-21T07:35:34.837Z,101887.31
2023-02-21T07:38:01.647Z,101889.97
2023-02-21T07:40:28.587Z,101887.31
2023-02-21T07:42:55.344Z,101887.31
2023-02-21T07:45:22.097Z,101898.09
2023-02-21T07:47:51.090Z,101896.25
2023-02-21T07:50:18.028Z,101897.09
2023-02-21T07:52:47.048Z,101899.75
2023-02-21T07:55:14.647Z,101895.44
2023-02-21T07:57:41.453Z,101894.44
2023-02-21T08:00:09.556Z,101892.63
2023-02-21T08:02:36.408Z,101898.78
2023-02-21T08:05:05.005Z,101899.59
2023-02-21T08:07:32.099Z,101895.13
2023-02-21T08:10:00.165Z,101893.47
2023-02-21T08:12:27.066Z,101893.47
2023-02-21T08:14:53.753Z,101898.78
2023-02-21T08:17:20.616Z,101898.91
2023-02-21T08:19:47.448Z,101899.94
2023-02-21T08:22:14.260Z,101895.59
2023-02-21T08:24:41.053Z,101899.09
2023-02-21T08:27:09.323Z,101890.13
2023-02-21T08:29:36.145Z,101895.44
2023-02-21T08:32:03.481Z,101890.13
2023-02-21T08:34:30.381Z,101888.31
2023-02-21T08:36:57.417Z,101886.47
2023-02-21T08:39:24.499Z,101884.16
2023-02-21T08:41:52.502Z,101891.28
2023-02-21T08:44:23.786Z,101885.97
2023-02-21T08:46:50.726Z,101885.81
2023-02-21T08:49:17.559Z,101884.81
2023-02-21T08:51:44.512Z,101879.50
2023-02-21T08:54:11.212Z,101880.34
2023-02-21T08:56:38.125Z,101881.16
2023-02-21T08:59:05.797Z,101871.38
2023-02-21T09:01:35.547Z,101885.50
2023-02-21T09:04:02.946Z,101888.16
2023-02-21T09:06:30.071Z,101879.22
2023-02-21T09:08:57.051Z,101884.22
2023-02-21T09:11:23.945Z,101876.25
2023-02-21T09:13:50.855Z,101880.56
2023-02-21T09:16:17.638Z,101873.44
2023-02-21T09:18:54.231Z,101869.66
2023-02-21T09:21:21.067Z,101877.47
2023-02-21T09:23:47.725Z,101870.47
2023-02-21T09:26:15.659Z,101867.81
2023-02-21T09:28:43.843Z,101868.53
2023-02-21T09:31:10.698Z,101866.69
2023-02-21T09:33:41.086Z,101859.38
2023-02-21T09:36:10.332Z,101858.41
2023-02-21T09:38:37.051Z,101857.41
2023-02-21T09:41:07.107Z,101855.47
2023-02-21T09:43:36.750Z,101845.69
2023-02-21T09:46:07.189Z,101854.47
2023-02-21T09:48:34.207Z,101853.47
2023-02-21T09:51:05.477Z,101847.16
2023-02-21T09:53:36.588Z,101857.78
2023-02-21T09:56:07.803Z,101853.31
2023-02-21T09:58:39.140Z,101854.00
2023-02-21T10:01:13.605Z,101858.31
2023-02-21T10:03:47.111Z,101857.34
2023-02-21T10:06:24.263Z,101853.84
2023-02-21T10:08:59.253Z,101846.53
2023-02-21T10:11:36.871Z,101849.19
2023-02-21T10:14:18.347Z,101858.84
2023-02-21T10:16:54.017Z,101863.16
2023-02-21T10:19:26.227Z,101858.84
2023-02-21T10:21:55.255Z,101865.81
2023-02-21T10:24:25.903Z,101859.53
2023-02-21T10:26:59.124Z,101857.72
2023-02-21T10:29:33.311Z,101863.69
2023-02-21T10:32:03.500Z,101863.84
2023-02-21T10:34:32.765Z,101865.53
2023-02-21T10:37:06.856Z,101869.84
2023-02-21T10:39:41.933Z,101866.34
2023-02-21T10:42:18.721Z,101864.34
2023-02-21T10:44:46.429Z,101865.19
2023-02-21T10:47:19.743Z,101866.56
2023-02-21T10:49:50.747Z,101863.78
2023-02-21T10:52:22.554Z,101860.28
2023-02-21T10:55:04.077Z,101861.13
2023-02-21T10:57:33.850Z,101856.78
2023-02-21T11:00:10.088Z,101853.13
2023-02-21T11:02:40.454Z,101854.97
2023-02-21T11:05:11.827Z,101860.28
2023-02-21T11:07:38.920Z,101861.13
2023-02-21T11:10:30.270Z,101860.94
2023-02-21T11:13:07.084Z,101866.94
2023-02-21T11:15:34.514Z,101865.94
2023-02-21T11:18:14.483Z,101858.66
2023-02-21T11:20:41.320Z,101861.13
2023-02-21T11:23:23.314Z,101863.66
2023-02-21T11:25:57.705Z,101856.38
2023-02-21T11:28:25.244Z,101847.41
2023-02-21T11:31:07.057Z,101853.56
2023-02-21T11:33:37.625Z,101850.72
2023-02-21T11:36:12.307Z,101852.41
2023-02-21T11:38:47.316Z,101850.59
2023-02-21T11:41:27.260Z,101848.47
2023-02-21T11:43:55.372Z,101847.66
2023-02-21T11:46:35.234Z,101850.44
2023-02-21T11:49:08.248Z,101849.63
2023-02-21T11:51:41.708Z,101846.13
2023-02-21T11:54:08.842Z,101841.78
2023-02-21T11:56:47.079Z,101846.13
2023-02-21T11:59:24.176Z,101839.81
2023-02-21T12:02:04.080Z,101844.31
2023-02-21T12:04:43.009Z,101834.50
2023-02-21T12:07:18.164Z,101825.56
2023-02-21T12:09:53.071Z,101829.88
2023-02-21T12:12:41.108Z,101828.22
2023-02-21T12:15:21.614Z,101829.88
2023-02-21T12:18:08.143Z,101839.66
2023-02-21T12:20:55.213Z,101834.50
2023-02-21T12:23:29.605Z,101836.19
2023-02-21T12:26:28.660Z,101825.56
2023-02-21T12:29:09.545Z,101832.84
2023-02-21T12:31:54.078Z,101828.66
2023-02-21T12:34:39.048Z,101827.00
2023-02-21T12:37:29.559Z,101824.47
2023-02-21T12:40:09.825Z,101810.38
2023-02-21T12:42:49.949Z,101813.84
2023-02-21T12:45:43.888Z,101805.88
2023-02-21T12:48:18.229Z,101805.19
2023-02-21T12:50:49.552Z,101802.53
2023-02-21T12:53:19.408Z,101801.56
2023-02-21T12:55:49.310Z,101798.75
2023-02-21T12:58:23.771Z,101798.75
2023-02-21T13:00:56.011Z,101801.25
2023-02-21T13:03:36.847Z,101798.41
2023-02-21T13:06:09.211Z,101794.94
2023-02-21T13:08:52.600Z,101793.09
2023-02-21T13:11:25.119Z,101790.31
2023-02-21T13:13:51.776Z,101777.88
2023-02-21T13:16:20.951Z,101775.06
2023-02-21T13:18:59.394Z,101779.25
2023-02-21T13:21:39.886Z,101777.25
2023-02-21T13:24:14.660Z,101772.59
2023-02-21T13:26:52.363Z,101763.66
2023-02-21T13:29:20.083Z,101771.47
2023-02-21T13:31:55.662Z,101764.31
2023-02-21T13:34:26.948Z,101768.63
2023-02-21T13:36:54.101Z,101762.47
2023-02-21T13:39:31.790Z,101764.16
2023-02-21T13:42:06.063Z,101761.34
2023-02-21T13:44:35.328Z,101753.22
2023-02-21T13:47:14.014Z,101753.22
2023-02-21T13:49:59.026Z,101759.34
2023-02-21T13:53:13.235Z,101756.53
2023-02-21T13:55:40.611Z,101746.22
2023-02-21T13:58:36.377Z,101752.22
2023-02-21T14:01:22.801Z,101754.88
2023-02-21T14:03:53.633Z,101755.72
2023-02-21T14:06:35.808Z,101751.22
2023-02-21T14:09:15.414Z,101745.72
2023-02-21T14:11:47.669Z,101741.94
2023-02-21T14:14:24.668Z,101744.59
2023-02-21T14:16:59.109Z,101746.41
2023-02-21T14:19:35.884Z,101739.94
2023-02-21T14:22:09.149Z,101741.63
2023-02-21T14:24:38.624Z,101740.09
2023-02-21T14:27:33.555Z,101731.97
2023-02-21T14:30:32.320Z,101733.66
2023-02-21T14:33:24.941Z,101732.13
2023-02-21T14:36:00.260Z,101731.00
2023-02-21T14:38:30.832Z,101731.97
2023-02-21T14:41:05.987Z,101730.31
2023-02-21T14:43:46.664Z,101729.47
2023-02-21T14:46:34.796Z,101733.13
2023-02-21T14:49:31.115Z,101738.28
2023-02-21T14:52:38.486Z,101733.66
2023-02-21T14:55:40.646Z,101727.66
2023-02-21T14:58:41.347Z,101727.66
2023-02-21T15:01:16.438Z,101717.03
2023-02-21T15:03:48.414Z,101723.00
2023-02-21T15:06:21.031Z,101722.34
2023-02-21T15:08:51.775Z,101722.19
2023-02-21T15:11:26.624Z,101716.19
2023-02-21T15:14:14.673Z,101712.53
2023-02-21T15:16:45.132Z,101715.03
2023-02-21T15:19:21.656Z,101713.22
2023-02-21T15:21:48.661Z,101715.03
2023-02-21T15:24:17.496Z,101705.06
2023-02-21T15:26:44.356Z,101704.06
2023-02-21T15:29:13.083Z,101711.88
2023-02-21T15:31:43.960Z,101716.91
2023-02-21T15:34:18.409Z,101708.91
2023-02-21T15:36:47.714Z,101706.25
2023-02-21T15:39:23.909Z,101705.44
2023-02-21T15:41:53.913Z,101706.25
2023-02-21T15:44:25.522Z,101703.59
2023-02-21T15:46:56.329Z,101701.78
2023-02-21T15:49:25.988Z,101706.06
2023-02-21T15:51:53.190Z,101700.94
2023-02-21T15:54:28.290Z,101698.28
2023-02-21T15:57:16.917Z,101701.78
2023-02-21T15:59:43.680Z,101694.78
2023-02-21T16:02:16.369Z,101686.97
2023-02-21T16:04:45.439Z,101687.13
2023-02-21T16:07:20.922Z,101686.28
2023-02-21T16:09:50.986Z,101684.63
2023-02-21T16:12:36.756Z,101691.13
2023-02-21T16:15:08.350Z,101692.28
2023-02-21T16:17:37.859Z,101684.78
2023-02-21T16:20:16.846Z,101685.44
2023-02-21T16:23:06.725Z,101685.44
2023-02-21T16:25:35.818Z,101684.78
2023-02-21T16:28:02.728Z,101684.78
2023-02-21T16:30:31.515Z,101681.31
2023-02-21T16:33:01.462Z,101681.31
2023-02-21T16:35:28.822Z,101680.63
2023-02-21T16:37:57.170Z,101683.28
2023-02-21T16:40:27.705Z,101676.28
2023-02-21T16:42:57.008Z,101675.63
2023-02-21T16:45:24.587Z,101672.13
2023-02-21T16:47:56.751Z,101668.81
2023-02-21T16:50:28.710Z,101676.78
2023-02-21T16:52:55.768Z,101677.78
2023-02-21T16:55:22.849Z,101674.28
2023-02-21T16:57:53.534Z,101671.63
2023-02-21T17:00:22.886Z,101674.44
2023-02-21T17:02:50.701Z,101677.09
2023-02-21T17:05:24.954Z,101680.59
2023-02-21T17:07:53.103Z,101678.09
2023-02-21T17:10:20.333Z,101684.25
2023-02-21T17:12:47.974Z,101687.06
2023-02-21T17:15:15.093Z,101678.09
2023-02-21T17:17:48.464Z,101680.75
2023-02-21T17:20:19.495Z,101682.56
2023-02-21T17:22:46.654Z,101680.94
2023-02-21T17:25:13.388Z,101677.44
2023-02-21T17:27:40.202Z,101689.06
2023-02-21T17:30:08.425Z,101687.25
2023-02-21T17:32:35.361Z,101680.25
2023-02-21T17:35:03.578Z,101689.91
2023-02-21T17:37:30.413Z,101686.25
2023-02-21T17:39:57.649Z,101689.91
2023-02-21T17:42:25.709Z,101689.91
2023-02-21T17:44:53.347Z,101683.75
2023-02-21T17:47:22.376Z,101687.38
2023-02-21T17:49:50.244Z,101693.53
2023-02-21T17:52:18.552Z,101686.41
2023-02-21T17:54:45.321Z,101690.88
2023-02-21T17:57:13.644Z,101687.25
2023-02-21T17:59:40.510Z,101683.75
2023-02-21T18:02:10.870Z,101683.75
2023-02-21T18:04:37.878Z,101682.91
2023-02-21T18:07:05.319Z,101684.06
2023-02-21T18:09:38.439Z,101681.41
2023-02-21T18:12:05.657Z,101688.53
2023-02-21T18:14:32.462Z,101691.19
2023-02-21T18:16:59.553Z,101681.53
2023-02-21T18:19:26.848Z,101681.72
2023-02-21T18:21:53.859Z,101685.19
2023-02-21T18:24:23.014Z,101686.19
2023-02-21T18:26:55.763Z,101681.84
2023-02-21T18:29:22.579Z,101685.50
2023-02-21T18:31:56.722Z,101683.84
2023-02-21T18:34:23.536Z,101682.16
2023-02-21T18:36:51.665Z,101680.50
2023-02-21T18:39:19.342Z,101681.50
2023-02-21T18:41:49.125Z,101680.84
2023-02-21T18:44:17.220Z,101672.72
2023-02-21T18:46:54.708Z,101676.50
2023-02-21T18:49:22.219Z,101674.69
2023-02-21T18:51:49.189Z,101671.03
2023-02-21T18:54:18.264Z,101673.03
2023-02-21T18:56:49.730Z,101671.34
2023-02-21T18:59:21.840Z,101677.50
2023-02-21T19:01:53.582Z,101670.53
2023-02-21T19:04:20.401Z,101670.84
2023-02-21T19:06:47.456Z,101669.19
2023-02-21T19:09:14.463Z,101668.34
2023-02-21T19:11:41.400Z,101671.84
2023-02-21T19:14:08.930Z,101674.50
2023-02-21T19:16:37.758Z,101670.03
2023-02-21T19:19:04.946Z,101674.50
2023-02-21T19:21:35.324Z,101664.03
2023-02-21T19:24:04.169Z,101662.22
2023-02-21T19:26:31.098Z,101668.34
2023-02-21T19:28:59.437Z,101659.56
2023-02-21T19:31:26.565Z,101656.06
2023-02-21T19:33:55.047Z,101657.06
2023-02-21T19:36:22.834Z,101656.22
2023-02-21T19:38:49.675Z,101652.91
2023-02-21T19:41:20.478Z,101659.22
2023-02-21T19:43:47.726Z,101655.72
2023-02-21T19:46:20.946Z,101656.72
2023-02-21T19:48:48.080Z,101651.41
2023-02-21T19:51:18.664Z,101651.41
2023-02-21T19:53:46.133Z,101641.75
2023-02-21T19:56:14.858Z,101647.22
2023-02-21T19:58:44.354Z,101651.88
2023-02-21T20:01:14.644Z,101644.06
2023-02-21T20:03:42.305Z,101639.75
2023-02-21T20:06:09.255Z,101643.38
2023-02-21T20:08:37.485Z,101636.25
2023-02-21T20:11:04.619Z,101637.78
2023-02-21T20:13:31.424Z,101636.94
2023-02-21T20:15:58.689Z,101641.41
2023-02-21T20:18:25.506Z,101640.59
2023-02-21T20:20:54.086Z,101637.25
2023-02-21T20:23:23.680Z,101634.75
2023-02-21T20:25:52.119Z,101627.75
2023-02-21T20:28:20.167Z,101633.41
2023-02-21T20:30:47.212Z,101628.09
2023-02-21T20:33:15.295Z,101628.94
2023-02-21T20:35:43.859Z,101627.94
2023-02-21T20:38:13.130Z,101632.56
2023-02-21T20:40:42.525Z,101626.44
2023-02-21T20:43:11.147Z,101623.78
2023-02-21T20:45:38.607Z,101620.44
2023-02-21T20:48:08.527Z,101623.09
2023-02-21T20:50:35.451Z,101612.66
2023-02-21T20:53:07.371Z,101619.78
2023-02-21T20:55:37.592Z,101610.81
2023-02-21T20:58:05.207Z,101612.66
2023-02-21T21:00:36.428Z,101610.00
2023-02-21T21:03:05.359Z,101610.00
2023-02-21T21:05:32.730Z,101606.53
2023-02-21T21:08:09.047Z,101610.16
2023-02-21T21:10:39.435Z,101603.03
2023-02-21T21:13:07.014Z,101608.34
2023-02-21T21:15:35.431Z,101604.84
2023-02-21T21:18:02.483Z,101612.81
2023-02-21T21:20:30.950Z,101609.47
2023-02-21T21:22:57.910Z,101606.97
2023-02-21T21:25:26.029Z,101606.97
2023-02-21T21:27:53.010Z,101607.81
2023-02-21T21:30:22.954Z,101602.50
2023-02-21T21:32:51.349Z,101598.88
2023-02-21T21:35:19.839Z,101602.50
2023-02-21T21:37:48.155Z,101599.16
2023-02-21T21:40:18.768Z,101605.31
2023-02-21T21:42:48.910Z,101606.31
2023-02-21T21:45:21.657Z,101600.34
2023-02-21T21:47:52.528Z,101602.16
2023-02-21T21:50:20.846Z,101605.81
2023-02-21T21:52:51.087Z,101598.81
2023-02-21T21:55:20.362Z,101600.78
2023-02-21T21:57:53.337Z,101598.31
2023-02-21T22:00:22.402Z,101590.38
2023-02-21T22:02:56.956Z,101583.22
2023-02-21T22:05:24.883Z,101584.06
2023-02-21T22:07:52.386Z,101576.09
2023-02-21T22:10:19.353Z,101574.44
2023-02-21T22:12:49.995Z,101578.91
2023-02-21T22:15:21.375Z,101575.28
2023-02-21T22:17:48.366Z,101566.47
2023-02-21T22:20:19.404Z,101569.97
2023-02-21T22:22:49.090Z,101565.66
2023-02-21T22:25:16.176Z,101556.84
2023-02-21T22:27:43.170Z,101554.19
2023-02-21T22:30:13.752Z,101548.06
2023-02-21T22:32:42.809Z,101547.22
2023-02-21T22:35:18.185Z,101536.75
2023-02-21T22:37:47.789Z,101540.56
2023-02-21T22:40:19.924Z,101534.75
2023-02-21T22:42:46.802Z,101528.75
2023-02-21T22:45:13.824Z,101532.41
2023-02-21T22:47:40.739Z,101525.47
2023-02-21T22:50:08.207Z,101525.47
2023-02-21T22:52:35.408Z,101519.47
2023-02-21T22:55:04.214Z,101520.44
2023-02-21T22:57:31.026Z,101517.13
2023-02-21T22:59:57.986Z,101510.97
2023-02-21T23:02:29.580Z,101508.19
2023-02-21T23:04:58.289Z,101515.47
2023-02-21T23:07:25.126Z,101507.97
2023-02-21T23:09:52.165Z,101505.47
2023-02-21T23:12:21.361Z,101494.22
2023-02-21T23:14:48.192Z,101498.00
2023-02-21T23:17:15.564Z,101498.84
2023-02-21T23:19:42.577Z,101494.53
2023-02-21T23:22:10.070Z,101494.84
2023-02-21T23:24:37.182Z,101485.41
2023-02-21T23:27:08.692Z,101478.56
2023-02-21T23:29:39.414Z,101472.78
2023-02-21T23:32:09.864Z,101474.75
2023-02-21T23:34:40.704Z,101481.88
2023-02-21T23:37:08.425Z,101476.72
2023-02-21T23:39:35.284Z,101474.91
2023-02-21T23:42:02.120Z,101463.13
2023-02-21T23:44:28.931Z,101463.25
2023-02-21T23:46:57.090Z,101459.78
2023-02-21T23:49:25.108Z,101462.75
2023-02-21T23:51:53.733Z,101462.91
2023-02-21T23:54:21.207Z,101461.25
2023-02-21T23:56:48.766Z,101455.94
2023-02-21T23:59:16.645Z,101463.22
